createdAt,value
2019-02-28T00:01:26.953Z,23.50
2019-02-28T00:06:28.481Z,23.50
2019-02-28T00:11:29.870Z,23.40
2019-02-28T00:16:31.227Z,23.50
2019-02-28T00:21:32.604Z,23.40
2019-02-28T00:26:33.938Z,23.40
2019-02-28T00:31:35.542Z,23.50
2019-02-28T00:36:37.004Z,23.40
2019-02-28T00:41:43.098Z,23.50
2019-02-28T00:46:45.027Z,23.40
2019-02-28T00:51:45.289Z,23.40
2019-02-28T00:56:51.620Z,23.40
2019-02-28T01:01:50.082Z,23.40
2019-02-28T01:06:51.533Z,23.40
2019-02-28T01:11:52.877Z,23.40
2019-02-28T01:16:54.262Z,23.40
2019-02-28T01:21:56.289Z,23.40
2019-02-28T01:26:57.782Z,23.40
2019-02-28T01:31:59.182Z,23.40
2019-02-28T01:37:00.607Z,23.40
2019-02-28T01:42:01.973Z,23.40
2019-02-28T01:47:03.337Z,23.40
2019-02-28T01:52:09.808Z,23.40
2019-02-28T01:57:09.018Z,23.40
2019-02-28T02:02:11.239Z,23.40
2019-02-28T02:07:12.615Z,23.30
2019-02-28T02:12:14.271Z,23.40
2019-02-28T02:17:15.649Z,23.40
2019-02-28T02:22:16.984Z,23.30
2019-02-28T02:27:19.644Z,23.40
2019-02-28T02:32:21.686Z,23.30
2019-02-28T02:37:26.384Z,23.30
2019-02-28T02:42:26.317Z,23.30
2019-02-28T02:47:31.422Z,23.30
2019-02-28T02:52:31.030Z,23.30
2019-02-28T02:57:32.362Z,23.30
2019-02-28T03:02:35.817Z,23.30
2019-02-28T03:07:37.248Z,23.30
2019-02-28T03:12:38.663Z,23.30
2019-02-28T03:17:46.620Z,23.30
2019-02-28T03:22:43.426Z,23.30
2019-02-28T03:27:44.855Z,23.30
2019-02-28T03:32:46.250Z,23.30
2019-02-28T03:37:47.583Z,23.30
2019-02-28T03:42:48.949Z,23.30
2019-02-28T03:47:50.306Z,23.20
2019-02-28T03:52:51.704Z,23.20
2019-02-28T03:57:53.039Z,23.30
2019-02-28T04:02:58.696Z,23.20
2019-02-28T04:07:57.848Z,23.20
2019-02-28T04:12:59.188Z,23.20
2019-02-28T04:18:06.892Z,23.20
2019-02-28T04:23:03.880Z,23.20
2019-02-28T04:28:05.211Z,23.30
2019-02-28T04:33:06.619Z,23.20
2019-02-28T04:38:08.057Z,23.20
2019-02-28T04:43:10.076Z,23.20
2019-02-28T04:48:14.032Z,23.20
2019-02-28T04:53:18.933Z,23.20
2019-02-28T04:58:18.842Z,23.20
2019-02-28T05:03:20.228Z,23.20
2019-02-28T05:08:21.550Z,23.20
2019-02-28T05:13:22.951Z,23.20
2019-02-28T05:18:27.617Z,23.20
2019-02-28T05:23:27.722Z,23.10
2019-02-28T05:28:29.060Z,23.10
2019-02-28T05:33:30.476Z,23.10
2019-02-28T05:38:32.099Z,23.10
2019-02-28T05:43:33.476Z,23.10
2019-02-28T05:48:35.228Z,23.10
2019-02-28T05:53:41.363Z,23.10
2019-02-28T05:58:41.575Z,23.10
2019-02-28T06:03:42.914Z,23.10
2019-02-28T06:08:44.302Z,23.10
2019-02-28T06:13:45.642Z,23.10
2019-02-28T06:18:47.031Z,23.10
2019-02-28T06:23:48.427Z,23.10
2019-02-28T06:28:49.835Z,23.10
2019-02-28T06:33:51.225Z,23.00
2019-02-28T06:38:54.563Z,23.10
2019-02-28T06:43:55.801Z,23.10
2019-02-28T06:49:00.857Z,23.10
2019-02-28T06:54:00.587Z,23.10
2019-02-28T06:59:04.877Z,23.10
2019-02-28T07:04:05.350Z,23.10
2019-02-28T07:09:06.780Z,23.10
2019-02-28T07:14:12.942Z,23.10
2019-02-28T07:19:12.551Z,23.10
2019-02-28T07:24:13.944Z,23.10
2019-02-28T07:29:15.355Z,23.10
2019-02-28T07:34:21.999Z,23.20
2019-02-28T07:39:20.115Z,23.20
2019-02-28T07:44:22.349Z,23.20
2019-02-28T07:49:25.957Z,23.30
2019-02-28T07:54:27.180Z,23.30
2019-02-28T07:59:28.510Z,23.20
2019-02-28T08:04:29.932Z,23.20
2019-02-28T08:09:31.669Z,23.20
2019-02-28T08:14:33.119Z,23.20
2019-02-28T08:19:34.526Z,23.20
2019-02-28T08:24:36.705Z,23.30
2019-02-28T08:29:38.141Z,23.30
2019-02-28T08:34:39.530Z,23.20
2019-02-28T08:39:42.046Z,23.20
2019-02-28T08:44:43.436Z,23.10
2019-02-28T08:49:45.554Z,23.20
2019-02-28T08:54:47.032Z,23.20
2019-02-28T08:59:48.458Z,23.20
2019-02-28T09:04:51.054Z,23.30
2019-02-28T09:09:52.474Z,23.30
2019-02-28T09:14:55.450Z,23.30
2019-02-28T09:19:57.347Z,23.30
2019-02-28T09:24:58.767Z,23.40
2019-02-28T09:30:00.273Z,23.40
2019-02-28T09:35:02.480Z,23.40
2019-02-28T09:40:13.744Z,23.50
2019-02-28T09:45:18.505Z,23.50
2019-02-28T09:50:22.563Z,23.50
2019-02-28T09:55:24.794Z,23.50
2019-02-28T10:00:27.655Z,23.50
2019-02-28T10:05:29.159Z,23.50
2019-02-28T10:10:31.771Z,23.50
2019-02-28T10:15:33.319Z,23.50
2019-02-28T10:20:37.874Z,23.40
2019-02-28T10:25:43.380Z,23.40
2019-02-28T10:30:42.931Z,23.40
2019-02-28T10:35:44.311Z,23.40
2019-02-28T10:40:45.658Z,23.40
2019-02-28T10:45:47.093Z,23.40
2019-02-28T10:50:48.610Z,23.40
2019-02-28T10:55:49.949Z,23.40
2019-02-28T11:00:51.335Z,23.40
2019-02-28T11:05:54.222Z,23.50
2019-02-28T11:10:58.159Z,23.40
2019-02-28T11:15:59.720Z,23.40
2019-02-28T11:21:01.293Z,23.40
2019-02-28T11:26:02.650Z,23.50
2019-02-28T11:31:04.650Z,23.50
2019-02-28T11:36:07.512Z,23.50
2019-02-28T11:41:09.307Z,23.50
2019-02-28T11:46:10.831Z,23.50
2019-02-28T11:51:14.650Z,23.60
2019-02-28T11:56:16.139Z,23.60
2019-02-28T12:01:17.626Z,23.60
2019-02-28T12:06:19.004Z,23.70
2019-02-28T12:11:20.337Z,23.60
2019-02-28T12:16:21.743Z,23.70
2019-02-28T12:21:23.176Z,23.70
2019-02-28T12:26:25.590Z,23.70
2019-02-28T12:31:27.119Z,23.70
2019-02-28T12:36:28.630Z,23.70
2019-02-28T12:41:30.082Z,23.70
2019-02-28T12:46:32.629Z,23.70
2019-02-28T12:51:36.433Z,23.70
2019-02-28T12:56:37.572Z,23.70
2019-02-28T13:01:38.999Z,23.70
2019-02-28T13:06:40.504Z,23.70
2019-02-28T13:11:42.026Z,23.70
2019-02-28T13:16:43.604Z,23.70
2019-02-28T13:21:46.804Z,23.70
2019-02-28T13:26:49.015Z,23.70
2019-02-28T13:31:50.379Z,23.70
2019-02-28T13:36:54.296Z,23.70
2019-02-28T13:41:55.298Z,23.70
2019-02-28T13:46:56.623Z,23.70
2019-02-28T13:51:57.987Z,23.70
2019-02-28T13:56:59.318Z,23.70
2019-02-28T14:02:00.709Z,23.70
2019-02-28T14:07:02.088Z,23.70
2019-02-28T14:12:03.749Z,23.70
2019-02-28T14:17:05.222Z,23.70
2019-02-28T14:22:08.621Z,23.70
2019-02-28T14:27:10.187Z,23.70
2019-02-28T14:32:11.572Z,23.70
2019-02-28T14:37:12.901Z,23.70
2019-02-28T14:42:14.298Z,23.70
2019-02-28T14:47:15.752Z,23.60
2019-02-28T14:52:17.348Z,23.70
2019-02-28T14:57:19.338Z,23.70
2019-02-28T15:02:21.137Z,23.70
2019-02-28T15:07:23.183Z,23.70
2019-02-28T15:12:26.803Z,23.70
2019-02-28T15:17:28.741Z,23.70
2019-02-28T15:22:32.343Z,23.70
2019-02-28T15:27:36.343Z,23.70
2019-02-28T15:32:37.599Z,23.70
2019-02-28T15:37:42.565Z,23.70
2019-02-28T15:42:44.531Z,23.70
2019-02-28T15:47:46.419Z,23.70
2019-02-28T15:52:48.058Z,23.70
2019-02-28T15:57:49.693Z,23.70
2019-02-28T16:02:51.485Z,23.70
2019-02-28T16:07:54.193Z,23.70
2019-02-28T16:12:55.823Z,23.70
2019-02-28T16:17:57.315Z,23.70
2019-02-28T16:22:59.018Z,23.70
2019-02-28T16:28:01.102Z,23.70
2019-02-28T16:33:06.570Z,23.70
2019-02-28T16:38:11.236Z,23.60
2019-02-28T16:43:12.772Z,23.60
2019-02-28T16:48:14.130Z,23.60
2019-02-28T16:53:17.286Z,23.60
2019-02-28T16:58:23.672Z,23.60
2019-02-28T17:03:26.535Z,23.60
2019-02-28T17:08:33.588Z,23.60
2019-02-28T17:13:39.922Z,23.60
2019-02-28T17:18:43.494Z,23.60
2019-02-28T17:23:45.448Z,23.70
2019-02-28T17:28:49.855Z,23.60
2019-02-28T17:33:52.491Z,23.60
2019-02-28T17:38:56.184Z,23.60
2019-02-28T17:44:29.430Z,23.60
2019-02-28T17:50:15.008Z,23.60
2019-02-28T17:55:36.934Z,23.70
2019-02-28T18:01:13.229Z,23.70
2019-02-28T18:06:47.218Z,23.70
2019-02-28T18:12:14.591Z,23.80
2019-02-28T18:17:48.695Z,23.80
2019-02-28T18:23:10.866Z,23.70
2019-02-28T18:28:32.648Z,23.70
2019-02-28T18:33:34.447Z,23.70
2019-02-28T18:38:36.838Z,23.80
2019-02-28T18:43:40.367Z,23.80
2019-02-28T18:48:41.523Z,23.80
2019-02-28T18:53:42.946Z,23.80
2019-02-28T18:58:44.435Z,23.90
2019-02-28T19:03:45.774Z,23.80
2019-02-28T19:08:47.243Z,23.80
2019-02-28T19:13:48.846Z,23.80
2019-02-28T19:18:50.543Z,23.80
2019-02-28T19:23:52.020Z,23.80
2019-02-28T19:28:53.786Z,23.80
2019-02-28T19:33:55.312Z,23.80
2019-02-28T19:38:56.799Z,23.80
2019-02-28T19:43:58.228Z,23.80
2019-02-28T19:48:59.570Z,23.80
2019-02-28T19:54:00.981Z,23.80
2019-02-28T19:59:02.650Z,23.80
2019-02-28T20:04:03.990Z,23.70
2019-02-28T20:09:06.823Z,23.80
2019-02-28T20:14:08.442Z,23.90
2019-02-28T20:19:09.943Z,23.90
2019-02-28T20:24:12.446Z,23.90
2019-02-28T20:29:15.129Z,23.90
2019-02-28T20:34:16.471Z,23.90
2019-02-28T20:39:17.962Z,23.90
2019-02-28T20:44:19.306Z,24.00
2019-02-28T20:49:21.627Z,24.00
2019-02-28T20:54:23.070Z,24.00
2019-02-28T20:59:24.459Z,24.00
2019-02-28T21:04:26.038Z,24.00
2019-02-28T21:09:27.475Z,24.00
2019-02-28T21:14:28.846Z,23.90
2019-02-28T21:19:30.188Z,23.80
2019-02-28T21:24:31.560Z,23.80
2019-02-28T21:29:32.947Z,23.80
2019-02-28T21:34:34.275Z,23.80
2019-02-28T21:39:35.758Z,23.70
2019-02-28T21:44:37.151Z,23.70
2019-02-28T21:49:38.464Z,23.70
2019-02-28T21:54:39.893Z,23.70
2019-02-28T21:59:41.299Z,23.70
2019-02-28T22:04:42.697Z,23.60
2019-02-28T22:09:44.043Z,23.70
2019-02-28T22:14:45.431Z,23.60
2019-02-28T22:19:46.768Z,23.60
2019-02-28T22:24:48.119Z,23.70
2019-02-28T22:29:49.507Z,23.60
2019-02-28T22:34:52.862Z,23.60
2019-02-28T22:39:54.195Z,23.60
2019-02-28T22:44:55.647Z,23.60
2019-02-28T22:49:57.076Z,23.60
2019-02-28T22:54:58.483Z,23.60
2019-02-28T22:59:59.853Z,23.50
2019-02-28T23:05:01.187Z,23.60
2019-02-28T23:10:05.863Z,23.50
2019-02-28T23:15:07.320Z,23.50
2019-02-28T23:20:08.864Z,23.50
2019-02-28T23:25:10.218Z,23.50
2019-02-28T23:30:20.288Z,23.50
2019-02-28T23:35:27.283Z,23.50
2019-02-28T23:40:28.665Z,23.50
2019-02-28T23:45:30.138Z,23.50
2019-02-28T23:50:31.480Z,23.50
2019-02-28T23:55:32.875Z,23.50
